Kuopio Airport


Codes: EFKU/KUO
Name: Kuopio Airport
City: Kuopio / Siilinjarvi
Country: Finland
Elevation: 323 ft.
Wikipedia:

Photos at Kuopio Airport


   Photos courtesy of SpottingLog. You can add your own sightings and photos by signing up for a free trial today.



G-TCDD, 01-Jan-1970
© Veeti Ruotsalainen

38871, 01-Jan-1970
© Veeti Ruotsalainen

TC-FBJ, 01-Jan-1970
© Veeti Ruotsalainen


Weather at Kuopio Airport


Time (UTC)DescriptionTempratureWindCloud coverageVisibilityPressureHumidity
21-Feb-2024 03:00Overcast Clouds-2°C9 mph, S100%5422m1010hPa94%
21-Feb-2024 06:00Overcast Clouds-5°C9 mph, S100%9550m1011hPa95%
21-Feb-2024 09:00Overcast Clouds-6°C11 mph, S100%1438m1011hPa97%
21-Feb-2024 12:00Overcast Clouds-3°C13 mph, S100%10000m1009hPa92%
21-Feb-2024 15:00Overcast Clouds-3°C13 mph, S100%5051m1008hPa92%
21-Feb-2024 18:00Overcast Clouds-4°C13 mph, S100%8616m1007hPa93%
21-Feb-2024 21:00Overcast Clouds-3°C16 mph, S100%1921m1005hPa93%
22-Feb-2024 00:00Light Snow-3°C13 mph, S100%137m1004hPa96%
22-Feb-2024 03:00Snow-3°C13 mph, S100%138m1002hPa96%
22-Feb-2024 06:00Light Snow-3°C11 mph, S99%222m1002hPa96%
22-Feb-2024 09:00Light Snow-1°C11 mph, S100%3521m1002hPa95%
22-Feb-2024 12:00Light Snow0°C11 mph, S100%2094m1002hPa97%
22-Feb-2024 15:00Light Snow0°C11 mph, S100%63m1002hPa98%
22-Feb-2024 18:00Light Snow1°C11 mph, S100%78m1002hPa98%
22-Feb-2024 21:00Overcast Clouds1°C13 mph, S100%6416m1003hPa95%
23-Feb-2024 00:00Overcast Clouds0°C11 mph, S100%646m1003hPa97%
23-Feb-2024 03:00Overcast Clouds0°C13 mph, S100%10000m1002hPa94%
23-Feb-2024 06:00Light Snow1°C16 mph, S100%10000m1002hPa90%
23-Feb-2024 09:00Light Snow1°C16 mph, SE100%10000m1001hPa90%
23-Feb-2024 12:00Light Snow1°C18 mph, SE100%10000m999hPa94%
23-Feb-2024 15:00Light Snow1°C20 mph, SE100%58m999hPa97%
23-Feb-2024 18:00Light Snow1°C18 mph, S100%50m1000hPa97%
23-Feb-2024 21:00Light Snow1°C13 mph, S100%77m1002hPa98%
24-Feb-2024 00:00Light Rain1°C13 mph, S100%10000m1004hPa96%
24-Feb-2024 03:00Overcast Clouds1°C11 mph, S100%10000m1006hPa90%
24-Feb-2024 06:00Overcast Clouds-3°C9 mph, S91%4675m1008hPa98%
24-Feb-2024 09:00Overcast Clouds-0°C9 mph, S100%10000m1010hPa96%
24-Feb-2024 12:00Overcast Clouds1°C11 mph, S100%10000m1011hPa96%
24-Feb-2024 15:00Overcast Clouds0°C9 mph, SE100%10000m1010hPa96%
24-Feb-2024 18:00Overcast Clouds0°C7 mph, SE100%10000m1009hPa97%
24-Feb-2024 21:00Light Snow0°C11 mph, E100%44m1005hPa99%
25-Feb-2024 00:00Snow0°C9 mph, SE100%45m1001hPa99%
25-Feb-2024 03:00Moderate Rain2°C11 mph, S100%163m999hPa99%
25-Feb-2024 06:00Light Snow1°C13 mph, SW100%53m1002hPa98%
25-Feb-2024 09:00Light Snow0°C13 mph, W100%84m1010hPa98%
25-Feb-2024 12:00Overcast Clouds1°C16 mph, SW100%10000m1015hPa88%
25-Feb-2024 15:00Light Snow1°C11 mph, SW100%10000m1018hPa88%
25-Feb-2024 18:00Light Snow1°C9 mph, S100%10000m1020hPa93%
25-Feb-2024 21:00Overcast Clouds1°C9 mph, SW100%10000m1021hPa95%
26-Feb-2024 00:00Overcast Clouds0°C7 mph, S100%10000m1023hPa96%